sensor_id;sensor_type;location;lat;lon;timestamp;pressure;altitude;pressure_sealevel;temperature;humidity
55934;BME280;41839;41.386;2.082;2023-04-09T00:00:08;100119.19;;;17.59;27.55
55934;BME280;41839;41.386;2.082;2023-04-09T00:02:34;100088.44;;;17.38;27.42
55934;BME280;41839;41.386;2.082;2023-04-09T00:05:00;100105.84;;;17.42;28.10
55934;BME280;41839;41.386;2.082;2023-04-09T00:07:26;100103.06;;;17.34;28.01
55934;BME280;41839;41.386;2.082;2023-04-09T00:09:52;100114.44;;;17.39;28.65
55934;BME280;41839;41.386;2.082;2023-04-09T00:12:17;100116.97;;;17.36;28.62
55934;BME280;41839;41.386;2.082;2023-04-09T00:14:43;100105.66;;;17.34;29.83
55934;BME280;41839;41.386;2.082;2023-04-09T00:17:08;100114.50;;;17.42;29.52
55934;BME280;41839;41.386;2.082;2023-04-09T00:19:34;100098.81;;;17.38;30.35
55934;BME280;41839;41.386;2.082;2023-04-09T00:21:59;100110.19;;;17.43;30.65
55934;BME280;41839;41.386;2.082;2023-04-09T00:24:25;100110.31;;;17.49;29.77
55934;BME280;41839;41.386;2.082;2023-04-09T00:26:50;100103.25;;;17.42;29.68
55934;BME280;41839;41.386;2.082;2023-04-09T00:29:17;100089.91;;;17.28;30.04
55934;BME280;41839;41.386;2.082;2023-04-09T00:31:43;100089.09;;;17.29;30.05
55934;BME280;41839;41.386;2.082;2023-04-09T00:34:08;100104.91;;;17.40;29.52
55934;BME280;41839;41.386;2.082;2023-04-09T00:36:33;100087.44;;;17.33;29.55
55934;BME280;41839;41.386;2.082;2023-04-09T00:38:59;100107.50;;;17.38;29.84
55934;BME280;41839;41.386;2.082;2023-04-09T00:41:24;100094.38;;;17.34;29.43
55934;BME280;41839;41.386;2.082;2023-04-09T00:43:50;100107.44;;;17.37;29.27
55934;BME280;41839;41.386;2.082;2023-04-09T00:46:16;100103.84;;;17.30;29.87
55934;BME280;41839;41.386;2.082;2023-04-09T00:48:42;100100.47;;;17.34;29.57
55934;BME280;41839;41.386;2.082;2023-04-09T00:51:08;100099.56;;;17.32;29.07
55934;BME280;41839;41.386;2.082;2023-04-09T00:53:33;100090.00;;;17.31;28.76
55934;BME280;41839;41.386;2.082;2023-04-09T00:56:00;100060.06;;;17.09;29.13
55934;BME280;41839;41.386;2.082;2023-04-09T00:58:26;100087.38;;;17.31;28.69
55934;BME280;41839;41.386;2.082;2023-04-09T01:00:51;100088.25;;;17.30;29.86
55934;BME280;41839;41.386;2.082;2023-04-09T01:03:17;100084.78;;;17.31;28.25
55934;BME280;41839;41.386;2.082;2023-04-09T01:08:43;100081.44;;;17.35;30.29
55934;BME280;41839;41.386;2.082;2023-04-09T01:11:27;100079.66;;;17.34;28.94
55934;BME280;41839;41.386;2.082;2023-04-09T01:17:10;100090.06;;;17.34;28.51
55934;BME280;41839;41.386;2.082;2023-04-09T01:19:44;100084.06;;;17.37;28.62
55934;BME280;41839;41.386;2.082;2023-04-09T01:22:47;100084.06;;;17.37;28.03
55934;BME280;41839;41.386;2.082;2023-04-09T01:28:26;100078.72;;;17.31;27.96
55934;BME280;41839;41.386;2.082;2023-04-09T01:30:59;100074.53;;;17.37;27.72
55934;BME280;41839;41.386;2.082;2023-04-09T01:33:26;100014.91;;;17.04;27.56
55934;BME280;41839;41.386;2.082;2023-04-09T01:35:53;100068.19;;;17.24;29.11
55934;BME280;41839;41.386;2.082;2023-04-09T01:38:20;100065.38;;;17.15;27.93
55934;BME280;41839;41.386;2.082;2023-04-09T01:40:47;100038.31;;;17.04;27.23
55934;BME280;41839;41.386;2.082;2023-04-09T01:43:13;100015.50;;;16.92;27.38
55934;BME280;41839;41.386;2.082;2023-04-09T01:45:40;100063.81;;;17.22;27.85
55934;BME280;41839;41.386;2.082;2023-04-09T01:48:07;100064.66;;;17.21;27.93
55934;BME280;41839;41.386;2.082;2023-04-09T01:50:32;100069.03;;;17.23;28.31
55934;BME280;41839;41.386;2.082;2023-04-09T01:52:59;100068.22;;;17.26;27.90
55934;BME280;41839;41.386;2.082;2023-04-09T01:55:26;100067.44;;;17.28;28.25
55934;BME280;41839;41.386;2.082;2023-04-09T01:57:51;100059.44;;;17.21;27.71
55934;BME280;41839;41.386;2.082;2023-04-09T02:00:17;100059.25;;;17.12;27.96
55934;BME280;41839;41.386;2.082;2023-04-09T02:05:14;100059.44;;;17.19;28.29
55934;BME280;41839;41.386;2.082;2023-04-09T02:07:51;100040.84;;;17.02;28.11
55934;BME280;41839;41.386;2.082;2023-04-09T02:10:19;100062.91;;;17.21;28.04
55934;BME280;41839;41.386;2.082;2023-04-09T02:12:49;100059.50;;;17.22;28.30
55934;BME280;41839;41.386;2.082;2023-04-09T02:15:17;100065.44;;;17.17;28.64
55934;BME280;41839;41.386;2.082;2023-04-09T02:17:43;100061.56;;;16.98;29.08
55934;BME280;41839;41.386;2.082;2023-04-09T02:20:09;100062.16;;;16.88;29.57
55934;BME280;41839;41.386;2.082;2023-04-09T02:22:34;100064.66;;;16.83;29.75
55934;BME280;41839;41.386;2.082;2023-04-09T02:25:00;100057.72;;;16.82;29.88
55934;BME280;41839;41.386;2.082;2023-04-09T02:27:25;100059.19;;;16.72;30.03
55934;BME280;41839;41.386;2.082;2023-04-09T02:29:51;100068.03;;;16.79;29.75
55934;BME280;41839;41.386;2.082;2023-04-09T02:32:16;100069.88;;;16.83;29.75
55934;BME280;41839;41.386;2.082;2023-04-09T02:34:41;100065.59;;;16.87;29.25
55934;BME280;41839;41.386;2.082;2023-04-09T02:37:07;100060.09;;;16.74;29.61
55934;BME280;41839;41.386;2.082;2023-04-09T02:39:32;100068.75;;;16.73;29.91
55934;BME280;41839;41.386;2.082;2023-04-09T02:41:58;100071.47;;;16.78;29.91
55934;BME280;41839;41.386;2.082;2023-04-09T02:44:23;100055.00;;;16.77;30.01
55934;BME280;41839;41.386;2.082;2023-04-09T02:46:50;100057.78;;;16.85;30.07
55934;BME280;41839;41.386;2.082;2023-04-09T02:49:16;100057.88;;;16.88;29.98
55934;BME280;41839;41.386;2.082;2023-04-09T02:51:41;100062.13;;;16.86;30.56
55934;BME280;41839;41.386;2.082;2023-04-09T02:54:07;100060.47;;;16.90;30.51
55934;BME280;41839;41.386;2.082;2023-04-09T02:56:32;100064.81;;;16.91;30.31
55934;BME280;41839;41.386;2.082;2023-04-09T02:58:58;100063.13;;;16.91;30.40
55934;BME280;41839;41.386;2.082;2023-04-09T03:01:23;100029.66;;;16.69;30.32
55934;BME280;41839;41.386;2.082;2023-04-09T03:03:49;100069.06;;;16.86;30.57
55934;BME280;41839;41.386;2.082;2023-04-09T03:06:14;100060.34;;;16.83;30.38
55934;BME280;41839;41.386;2.082;2023-04-09T03:08:40;100063.78;;;16.82;30.48
55934;BME280;41839;41.386;2.082;2023-04-09T03:11:05;100064.41;;;16.72;30.48
55934;BME280;41839;41.386;2.082;2023-04-09T03:13:31;100062.53;;;16.67;30.80
55934;BME280;41839;41.386;2.082;2023-04-09T03:15:56;100064.25;;;16.68;30.89
55934;BME280;41839;41.386;2.082;2023-04-09T03:18:22;100053.94;;;16.69;31.21
55934;BME280;41839;41.386;2.082;2023-04-09T03:20:47;100060.94;;;16.73;30.31
55934;BME280;41839;41.386;2.082;2023-04-09T03:23:12;100058.47;;;16.78;30.49
55934;BME280;41839;41.386;2.082;2023-04-09T03:25:38;100016.59;;;16.66;29.90
55934;BME280;41839;41.386;2.082;2023-04-09T03:28:03;100047.53;;;16.91;30.04
55934;BME280;41839;41.386;2.082;2023-04-09T03:30:29;100046.63;;;16.91;29.83
55934;BME280;41839;41.386;2.082;2023-04-09T03:32:54;100051.88;;;16.92;30.05
55934;BME280;41839;41.386;2.082;2023-04-09T03:35:20;100049.31;;;16.94;29.37
55934;BME280;41839;41.386;2.082;2023-04-09T03:37:46;100051.09;;;16.95;29.86
55934;BME280;41839;41.386;2.082;2023-04-09T03:40:12;100036.31;;;16.92;30.10
55934;BME280;41839;41.386;2.082;2023-04-09T03:42:38;100043.34;;;16.98;29.43
55934;BME280;41839;41.386;2.082;2023-04-09T03:45:04;100044.19;;;16.97;29.07
55934;BME280;41839;41.386;2.082;2023-04-09T03:47:29;100014.44;;;16.82;30.25
55934;BME280;41839;41.386;2.082;2023-04-09T03:49:55;100036.56;;;17.04;29.27
55934;BME280;41839;41.386;2.082;2023-04-09T03:52:21;100043.50;;;17.05;29.29
55934;BME280;41839;41.386;2.082;2023-04-09T03:54:46;100040.09;;;17.08;29.38
55934;BME280;41839;41.386;2.082;2023-04-09T03:57:11;100041.91;;;17.11;28.54
55934;BME280;41839;41.386;2.082;2023-04-09T03:59:37;100039.38;;;17.15;28.67
55934;BME280;41839;41.386;2.082;2023-04-09T04:02:02;100015.50;;;16.92;28.54
55934;BME280;41839;41.386;2.082;2023-04-09T04:04:28;100038.31;;;17.05;28.19
55934;BME280;41839;41.386;2.082;2023-04-09T04:06:53;100039.25;;;17.09;28.97
55934;BME280;41839;41.386;2.082;2023-04-09T04:09:19;100005.97;;;16.91;28.43
55934;BME280;41839;41.386;2.082;2023-04-09T04:11:44;100039.16;;;17.04;28.85
55934;BME280;41839;41.386;2.082;2023-04-09T04:14:10;100026.09;;;17.01;28.20
55934;BME280;41839;41.386;2.082;2023-04-09T04:16:35;100036.59;;;17.06;29.10
55934;BME280;41839;41.386;2.082;2023-04-09T04:19:01;100045.47;;;16.76;29.94
55934;BME280;41839;41.386;2.082;2023-04-09T04:21:26;100009.50;;;16.57;30.40
55934;BME280;41839;41.386;2.082;2023-04-09T04:23:52;100036.81;;;16.77;30.04
55934;BME280;41839;41.386;2.082;2023-04-09T04:26:17;100008.81;;;16.66;31.16
55934;BME280;41839;41.386;2.082;2023-04-09T04:28:43;100041.41;;;16.89;30.55
55934;BME280;41839;41.386;2.082;2023-04-09T04:31:10;100024.91;;;16.86;28.29
55934;BME280;41839;41.386;2.082;2023-04-09T04:33:37;100031.09;;;16.92;28.65
55934;BME280;41839;41.386;2.082;2023-04-09T04:36:07;100036.31;;;16.94;28.05
55934;BME280;41839;41.386;2.082;2023-04-09T04:38:33;100047.22;;;16.77;29.61
55934;BME280;41839;41.386;2.082;2023-04-09T04:40:59;100039.16;;;16.68;30.04
55934;BME280;41839;41.386;2.082;2023-04-09T04:43:25;100040.44;;;16.84;29.02
55934;BME280;41839;41.386;2.082;2023-04-09T04:45:50;100047.53;;;16.91;27.95
55934;BME280;41839;41.386;2.082;2023-04-09T04:48:16;100008.56;;;16.55;29.36
55934;BME280;41839;41.386;2.082;2023-04-09T04:50:41;100039.53;;;16.82;29.78
55934;BME280;41839;41.386;2.082;2023-04-09T04:53:07;100030.84;;;16.81;28.21
55934;BME280;41839;41.386;2.082;2023-04-09T04:55:36;100037.22;;;16.94;28.54
55934;BME280;41839;41.386;2.082;2023-04-09T04:58:01;100043.31;;;16.96;27.59
55934;BME280;41839;41.386;2.082;2023-04-09T05:00:27;100038.19;;;16.99;27.56
55934;BME280;41839;41.386;2.082;2023-04-09T05:02:52;100036.38;;;16.95;27.80
55934;BME280;41839;41.386;2.082;2023-04-09T05:05:18;99992.47;;;16.70;28.02
55934;BME280;41839;41.386;2.082;2023-04-09T05:07:43;100042.88;;;16.76;30.04
55934;BME280;41839;41.386;2.082;2023-04-09T05:10:09;100042.56;;;16.66;31.57
55934;BME280;41839;41.386;2.082;2023-04-09T05:12:34;100044.88;;;16.53;31.26
55934;BME280;41839;41.386;2.082;2023-04-09T05:15:00;100046.44;;;16.47;31.02
55934;BME280;41839;41.386;2.082;2023-04-09T05:17:26;100042.56;;;16.29;31.76
55934;BME280;41839;41.386;2.082;2023-04-09T05:19:52;100041.22;;;16.10;32.63
55934;BME280;41839;41.386;2.082;2023-04-09T05:22:17;100027.78;;;15.94;33.38
55934;BME280;41839;41.386;2.082;2023-04-09T05:24:43;100052.50;;;16.12;33.24
55934;BME280;41839;41.386;2.082;2023-04-09T05:27:08;100041.13;;;16.07;33.40
55934;BME280;41839;41.386;2.082;2023-04-09T05:29:34;100052.47;;;16.11;33.74
55934;BME280;41839;41.386;2.082;2023-04-09T05:31:59;100053.28;;;16.10;33.83
55934;BME280;41839;41.386;2.082;2023-04-09T05:34:25;100055.09;;;16.12;33.72
55934;BME280;41839;41.386;2.082;2023-04-09T05:36:51;100044.22;;;15.93;33.85
55934;BME280;41839;41.386;2.082;2023-04-09T05:39:17;100045.19;;;15.98;34.80
55934;BME280;41839;41.386;2.082;2023-04-09T05:41:42;100063.59;;;16.07;34.13
55934;BME280;41839;41.386;2.082;2023-04-09T05:44:10;100057.38;;;16.00;34.18
55934;BME280;41839;41.386;2.082;2023-04-09T05:46:35;99934.41;;;15.29;33.49
55934;BME280;41839;41.386;2.082;2023-04-09T05:49:01;100049.56;;;16.00;33.16
55934;BME280;41839;41.386;2.082;2023-04-09T05:51:27;100054.78;;;16.00;32.61
55934;BME280;41839;41.386;2.082;2023-04-09T05:53:52;100056.56;;;16.03;32.06
55934;BME280;41839;41.386;2.082;2023-04-09T05:56:19;100043.88;;;15.80;33.06
55934;BME280;41839;41.386;2.082;2023-04-09T05:58:47;100059.44;;;15.80;33.41
55934;BME280;41839;41.386;2.082;2023-04-09T06:01:12;100033.25;;;15.71;33.94
55934;BME280;41839;41.386;2.082;2023-04-09T06:03:38;100066.94;;;16.01;34.04
55934;BME280;41839;41.386;2.082;2023-04-09T06:06:04;100064.41;;;16.04;34.18
55934;BME280;41839;41.386;2.082;2023-04-09T06:08:29;100040.75;;;15.92;34.35
55934;BME280;41839;41.386;2.082;2023-04-09T06:10:55;100024.94;;;15.83;34.06
55934;BME280;41839;41.386;2.082;2023-04-09T06:13:20;100066.25;;;16.10;34.63
55934;BME280;41839;41.386;2.082;2023-04-09T06:15:46;100069.72;;;16.09;34.62
55934;BME280;41839;41.386;2.082;2023-04-09T06:18:12;100079.47;;;16.19;35.13
55934;BME280;41839;41.386;2.082;2023-04-09T06:20:38;100075.22;;;16.21;34.69
55934;BME280;41839;41.386;2.082;2023-04-09T06:23:04;100080.44;;;16.23;36.37
55934;BME280;41839;41.386;2.082;2023-04-09T06:25:29;100071.84;;;16.25;34.77
55934;BME280;41839;41.386;2.082;2023-04-09T06:27:55;100079.00;;;16.34;34.95
55934;BME280;41839;41.386;2.082;2023-04-09T06:30:21;100082.47;;;16.33;35.54
55934;BME280;41839;41.386;2.082;2023-04-09T06:32:47;100084.25;;;16.35;35.44
55934;BME280;41839;41.386;2.082;2023-04-09T06:35:14;100064.88;;;16.23;35.00
55934;BME280;41839;41.386;2.082;2023-04-09T06:37:39;100093.09;;;16.44;36.56
55934;BME280;41839;41.386;2.082;2023-04-09T06:40:06;100092.31;;;16.46;36.00
55934;BME280;41839;41.386;2.082;2023-04-09T06:42:32;100083.63;;;16.46;35.38
55934;BME280;41839;41.386;2.082;2023-04-09T06:44:57;100094.19;;;16.53;35.25
55934;BME280;41839;41.386;2.082;2023-04-09T06:47:23;100075.78;;;16.44;34.93
55934;BME280;41839;41.386;2.082;2023-04-09T06:49:49;100086.56;;;16.59;34.76
55934;BME280;41839;41.386;2.082;2023-04-09T06:52:14;100096.22;;;16.65;34.49
55934;BME280;41839;41.386;2.082;2023-04-09T06:54:40;100091.25;;;16.74;34.77
55934;BME280;41839;41.386;2.082;2023-04-09T06:57:07;100060.81;;;16.69;34.31
55934;BME280;41839;41.386;2.082;2023-04-09T06:59:32;100092.03;;;17.05;33.61
55934;BME280;41839;41.386;2.082;2023-04-09T07:01:58;100096.84;;;17.26;33.11
55934;BME280;41839;41.386;2.082;2023-04-09T07:04:24;100093.56;;;17.35;33.41
55934;BME280;41839;41.386;2.082;2023-04-09T07:06:50;100104.25;;;17.48;33.06
55934;BME280;41839;41.386;2.082;2023-04-09T07:09:17;100091.47;;;17.59;32.79
55934;BME280;41839;41.386;2.082;2023-04-09T07:11:43;100095.16;;;17.70;33.32
55934;BME280;41839;41.386;2.082;2023-04-09T07:14:08;100100.63;;;17.81;33.20
55934;BME280;41839;41.386;2.082;2023-04-09T07:16:34;100101.44;;;17.79;32.47
55934;BME280;41839;41.386;2.082;2023-04-09T07:18:59;100103.94;;;17.75;32.48
55934;BME280;41839;41.386;2.082;2023-04-09T07:21:25;100090.72;;;17.65;32.70
55934;BME280;41839;41.386;2.082;2023-04-09T07:23:52;100095.56;;;17.87;32.69
55934;BME280;41839;41.386;2.082;2023-04-09T07:26:18;100101.00;;;18.00;32.12
55934;BME280;41839;41.386;2.082;2023-04-09T07:28:43;100102.00;;;18.08;32.08
55934;BME280;41839;41.386;2.082;2023-04-09T07:31:09;100079.28;;;17.99;32.19
55934;BME280;41839;41.386;2.082;2023-04-09T07:33:35;100102.44;;;18.32;31.66
55934;BME280;41839;41.386;2.082;2023-04-09T07:36:01;100083.81;;;18.09;31.73
55934;BME280;41839;41.386;2.082;2023-04-09T07:38:28;100107.53;;;18.26;31.69
55934;BME280;41839;41.386;2.082;2023-04-09T07:40:53;100104.94;;;18.25;31.00
55934;BME280;41839;41.386;2.082;2023-04-09T07:43:19;100115.19;;;18.17;31.82
55934;BME280;41839;41.386;2.082;2023-04-09T07:45:47;100107.53;;;18.26;31.80
55934;BME280;41839;41.386;2.082;2023-04-09T07:48:13;100112.97;;;18.38;31.44
55934;BME280;41839;41.386;2.082;2023-04-09T07:50:39;100112.22;;;18.44;31.39
55934;BME280;41839;41.386;2.082;2023-04-09T07:53:04;100116.06;;;18.66;30.96
55934;BME280;41839;41.386;2.082;2023-04-09T07:55:30;100117.84;;;18.70;30.84
55934;BME280;41839;41.386;2.082;2023-04-09T07:57:55;100118.41;;;19.02;30.72
55934;BME280;41839;41.386;2.082;2023-04-09T08:00:21;100119.94;;;19.49;29.77
55934;BME280;41839;41.386;2.082;2023-04-09T08:02:46;100121.22;;;19.77;29.51
55934;BME280;41839;41.386;2.082;2023-04-09T08:05:12;100093.38;;;19.76;29.02
55934;BME280;41839;41.386;2.082;2023-04-09T08:07:37;100107.63;;;20.04;29.07
55934;BME280;41839;41.386;2.082;2023-04-09T08:10:04;100115.72;;;20.30;28.56
55934;BME280;41839;41.386;2.082;2023-04-09T08:12:30;100122.75;;;20.36;28.45
55934;BME280;41839;41.386;2.082;2023-04-09T08:14:55;100124.56;;;20.46;28.64
55934;BME280;41839;41.386;2.082;2023-04-09T08:17:21;100100.06;;;20.33;28.78
55934;BME280;41839;41.386;2.082;2023-04-09T08:19:46;100130.50;;;20.31;28.99
55934;BME280;41839;41.386;2.082;2023-04-09T08:22:13;100122.66;;;20.26;28.92
55934;BME280;41839;41.386;2.082;2023-04-09T08:24:41;100137.56;;;20.38;28.90
55934;BME280;41839;41.386;2.082;2023-04-09T08:27:08;100144.31;;;20.16;29.30
55934;BME280;41839;41.386;2.082;2023-04-09T08:29:33;100140.50;;;19.90;29.54
55934;BME280;41839;41.386;2.082;2023-04-09T08:31:59;100144.91;;;19.94;29.24
55934;BME280;41839;41.386;2.082;2023-04-09T08:34:24;100154.31;;;19.81;28.89
55934;BME280;41839;41.386;2.082;2023-04-09T08:36:50;100146.38;;;19.70;28.67
55934;BME280;41839;41.386;2.082;2023-04-09T08:39:16;100126.91;;;19.48;28.83
55934;BME280;41839;41.386;2.082;2023-04-09T08:41:45;100138.03;;;19.37;29.04
55934;BME280;41839;41.386;2.082;2023-04-09T08:44:12;100154.75;;;19.51;28.85
55934;BME280;41839;41.386;2.082;2023-04-09T08:46:37;100161.47;;;19.35;28.52
55934;BME280;41839;41.386;2.082;2023-04-09T08:49:03;100151.53;;;19.09;28.88
55934;BME280;41839;41.386;2.082;2023-04-09T08:51:28;100170.03;;;19.25;29.52
55934;BME280;41839;41.386;2.082;2023-04-09T08:53:58;100153.13;;;19.00;28.49
55934;BME280;41839;41.386;2.082;2023-04-09T08:56:24;100140.97;;;19.00;29.26
55934;BME280;41839;41.386;2.082;2023-04-09T08:58:50;100166.56;;;19.24;29.40
55934;BME280;41839;41.386;2.082;2023-04-09T09:01:24;100175.00;;;19.09;28.80
55934;BME280;41839;41.386;2.082;2023-04-09T09:06:25;100173.25;;;19.66;28.18
55934;BME280;41839;41.386;2.082;2023-04-09T09:09:00;100174.06;;;19.62;28.21
55934;BME280;41839;41.386;2.082;2023-04-09T09:11:26;100129.56;;;19.51;28.08
55934;BME280;41839;41.386;2.082;2023-04-09T09:14:02;100170.91;;;19.83;27.69
55934;BME280;41839;41.386;2.082;2023-04-09T09:16:29;100180.59;;;19.93;27.51
55934;BME280;41839;41.386;2.082;2023-04-09T09:18:57;100178.84;;;19.94;27.60
55934;BME280;41839;41.386;2.082;2023-04-09T09:21:24;100181.59;;;20.04;27.43
55934;BME280;41839;41.386;2.082;2023-04-09T09:23:51;100180.53;;;19.89;26.95
55934;BME280;41839;41.386;2.082;2023-04-09T09:26:19;100183.88;;;19.77;27.50
55934;BME280;41839;41.386;2.082;2023-04-09T09:28:46;100187.09;;;19.61;28.02
55934;BME280;41839;41.386;2.082;2023-04-09T09:31:13;100190.66;;;19.64;28.60
55934;BME280;41839;41.386;2.082;2023-04-09T09:33:39;100161.81;;;19.58;29.13
55934;BME280;41839;41.386;2.082;2023-04-09T09:36:05;100186.72;;;19.95;29.01
55934;BME280;41839;41.386;2.082;2023-04-09T09:38:55;100161.63;;;20.10;29.20
55934;BME280;41839;41.386;2.082;2023-04-09T09:41:21;100184.59;;;20.40;29.94
55934;BME280;41839;41.386;2.082;2023-04-09T09:43:47;100144.25;;;20.12;30.73
55934;BME280;41839;41.386;2.082;2023-04-09T09:46:14;100195.63;;;20.93;31.67
55934;BME280;41839;41.386;2.082;2023-04-09T09:48:41;100186.78;;;20.81;29.83
55934;BME280;41839;41.386;2.082;2023-04-09T09:51:11;100190.13;;;20.63;30.14
55934;BME280;41839;41.386;2.082;2023-04-09T09:53:38;100183.25;;;20.72;29.16
55934;BME280;41839;41.386;2.082;2023-04-09T09:56:06;100184.97;;;20.73;29.89
55934;BME280;41839;41.386;2.082;2023-04-09T09:58:51;100188.59;;;20.89;30.79
55934;BME280;41839;41.386;2.082;2023-04-09T10:01:20;100185.34;;;21.16;31.19
55934;BME280;41839;41.386;2.082;2023-04-09T10:03:49;100181.13;;;21.34;31.39
55934;BME280;41839;41.386;2.082;2023-04-09T10:06:15;100187.78;;;20.96;31.53
55934;BME280;41839;41.386;2.082;2023-04-09T10:08:41;100183.66;;;21.25;29.62
55934;BME280;41839;41.386;2.082;2023-04-09T10:11:07;100174.91;;;21.24;27.98
55934;BME280;41839;41.386;2.082;2023-04-09T10:13:39;100174.09;;;21.30;27.28
55934;BME280;41839;41.386;2.082;2023-04-09T10:16:06;100180.47;;;21.70;28.63
55934;BME280;41839;41.386;2.082;2023-04-09T10:18:33;100177.88;;;21.69;31.17
55934;BME280;41839;41.386;2.082;2023-04-09T10:23:41;100109.66;;;21.41;25.66
55934;BME280;41839;41.386;2.082;2023-04-09T10:26:07;100165.63;;;21.68;25.88
55934;BME280;41839;41.386;2.082;2023-04-09T10:28:33;100171.81;;;21.80;26.42
55934;BME280;41839;41.386;2.082;2023-04-09T10:30:59;100164.81;;;21.79;26.19
55934;BME280;41839;41.386;2.082;2023-04-09T10:33:26;100163.88;;;21.62;27.07
55934;BME280;41839;41.386;2.082;2023-04-09T10:35:54;100161.31;;;21.74;26.56
55934;BME280;41839;41.386;2.082;2023-04-09T10:40:58;100134.25;;;21.75;26.28
55934;BME280;41839;41.386;2.082;2023-04-09T10:43:23;100153.56;;;22.03;25.30
55934;BME280;41839;41.386;2.082;2023-04-09T10:45:49;100144.81;;;22.01;24.04
55934;BME280;41839;41.386;2.082;2023-04-09T10:48:18;100144.09;;;22.47;24.72
55934;BME280;41839;41.386;2.082;2023-04-09T10:50:49;100145.00;;;22.61;24.10
55934;BME280;41839;41.386;2.082;2023-04-09T10:53:22;100134.47;;;22.50;23.60
55934;BME280;41839;41.386;2.082;2023-04-09T10:55:49;100151.91;;;22.25;23.63
55934;BME280;41839;41.386;2.082;2023-04-09T10:58:18;100121.34;;;22.27;23.97
55934;BME280;41839;41.386;2.082;2023-04-09T11:00:46;100148.50;;;22.77;22.60
55934;BME280;41839;41.386;2.082;2023-04-09T11:05:56;100141.50;;;22.59;20.74
55934;BME280;41839;41.386;2.082;2023-04-09T11:08:26;100144.13;;;22.84;22.14
55934;BME280;41839;41.386;2.082;2023-04-09T11:10:52;100118.78;;;22.78;21.56
55934;BME280;41839;41.386;2.082;2023-04-09T11:13:22;100117.00;;;22.69;22.60
55934;BME280;41839;41.386;2.082;2023-04-09T11:15:47;100085.53;;;22.85;23.67
55934;BME280;41839;41.386;2.082;2023-04-09T11:18:21;100139.78;;;23.09;21.14
55934;BME280;41839;41.386;2.082;2023-04-09T11:20:47;100140.63;;;23.38;19.95
55934;BME280;41839;41.386;2.082;2023-04-09T11:23:13;100121.38;;;23.13;21.16
55934;BME280;41839;41.386;2.082;2023-04-09T11:25:39;100137.13;;;22.72;22.32
55934;BME280;41839;41.386;2.082;2023-04-09T11:28:05;100110.88;;;22.33;21.17
55934;BME280;41839;41.386;2.082;2023-04-09T11:30:32;100140.63;;;22.49;21.09
55934;BME280;41839;41.386;2.082;2023-04-09T11:32:59;100114.28;;;22.03;22.06
55934;BME280;41839;41.386;2.082;2023-04-09T11:35:25;100137.81;;;21.97;22.20
55934;BME280;41839;41.386;2.082;2023-04-09T11:37:51;100132.56;;;21.88;22.57
55934;BME280;41839;41.386;2.082;2023-04-09T11:40:21;100140.34;;;21.70;23.84
55934;BME280;41839;41.386;2.082;2023-04-09T11:42:50;100129.75;;;21.48;24.60
55934;BME280;41839;41.386;2.082;2023-04-09T11:45:17;100134.84;;;21.30;24.22
55934;BME280;41839;41.386;2.082;2023-04-09T11:47:44;100128.75;;;21.29;23.27
55934;BME280;41839;41.386;2.082;2023-04-09T11:50:11;100124.31;;;21.16;23.57
55934;BME280;41839;41.386;2.082;2023-04-09T11:52:37;100086.66;;;20.95;24.66
55934;BME280;41839;41.386;2.082;2023-04-09T11:55:04;100131.22;;;21.06;25.62
55934;BME280;41839;41.386;2.082;2023-04-09T11:57:45;100113.69;;;20.96;26.72
55934;BME280;41839;41.386;2.082;2023-04-09T12:00:15;100131.16;;;20.97;26.71
55934;BME280;41839;41.386;2.082;2023-04-09T12:02:45;100120.53;;;20.79;27.26
55934;BME280;41839;41.386;2.082;2023-04-09T12:05:20;100112.50;;;20.54;26.96
55934;BME280;41839;41.386;2.082;2023-04-09T12:07:46;100144.81;;;20.64;27.41
55934;BME280;41839;41.386;2.082;2023-04-09T12:10:11;100130.09;;;20.75;27.77
55934;BME280;41839;41.386;2.082;2023-04-09T12:12:41;100134.50;;;20.82;29.08
55934;BME280;41839;41.386;2.082;2023-04-09T12:15:21;100108.78;;;20.32;28.60
55934;BME280;41839;41.386;2.082;2023-04-09T12:17:52;100138.28;;;20.23;30.68
55934;BME280;41839;41.386;2.082;2023-04-09T12:20:31;100104.50;;;20.43;30.19
55934;BME280;41839;41.386;2.082;2023-04-09T12:22:58;100131.09;;;20.91;29.97
55934;BME280;41839;41.386;2.082;2023-04-09T12:25:25;100131.63;;;20.53;30.88
55934;BME280;41839;41.386;2.082;2023-04-09T12:27:51;100133.22;;;20.39;30.87
55934;BME280;41839;41.386;2.082;2023-04-09T12:30:16;100130.06;;;20.69;30.72
55934;BME280;41839;41.386;2.082;2023-04-09T12:32:42;100106.53;;;20.69;30.89
55934;BME280;41839;41.386;2.082;2023-04-09T12:35:10;100131.63;;;20.52;30.18
55934;BME280;41839;41.386;2.082;2023-04-09T12:37:35;100140.38;;;20.55;30.07
55934;BME280;41839;41.386;2.082;2023-04-09T12:40:01;100137.78;;;20.58;30.24
55934;BME280;41839;41.386;2.082;2023-04-09T12:42:26;100135.25;;;20.66;31.94
55934;BME280;41839;41.386;2.082;2023-04-09T12:44:51;100129.34;;;20.90;31.29
55934;BME280;41839;41.386;2.082;2023-04-09T12:47:17;100136.34;;;20.92;30.17
55934;BME280;41839;41.386;2.082;2023-04-09T12:49:43;100142.22;;;20.68;30.22
55934;BME280;41839;41.386;2.082;2023-04-09T12:52:10;100128.19;;;20.54;29.62
55934;BME280;41839;41.386;2.082;2023-04-09T12:54:36;100127.97;;;20.36;29.14
55934;BME280;41839;41.386;2.082;2023-04-09T12:57:01;100128.84;;;20.36;28.92
55934;BME280;41839;41.386;2.082;2023-04-09T12:59:27;100127.63;;;20.05;30.28
55934;BME280;41839;41.386;2.082;2023-04-09T13:01:52;100114.69;;;20.14;30.84
55934;BME280;41839;41.386;2.082;2023-04-09T13:04:18;100118.88;;;20.00;29.09
55934;BME280;41839;41.386;2.082;2023-04-09T13:06:43;100095.41;;;20.03;29.01
55934;BME280;41839;41.386;2.082;2023-04-09T13:09:09;100113.72;;;20.06;29.27